Etusivu
METAR-TAF:

METAR-TAF

Lentoasemat :

Prairie du Chien Municipal Airport

Prairie du Chien, Wisconsin, Yhdysvallat

Leveyspiiri: 43-01-19N, Pituuspiiri: 091-07-29W, korkeus merenpinnasta: 201 m

Tämänhetkinen sää

Tämä raportti tehtiin 18 minuuttia sitten, kello 06.35 UTC
Tuuli 5 kn lännestä/luoteesta
Lämpötila 8°C
Kosteus 87%
Ilmanpaine 1012 hPa
Näkyvyys: 16.1 km
Hajonneita pilviä 1300 ft:n korkeudessa

METAR: KPDC 290635Z AUTO 29005KT 10SM BKN013 08/06 A2989 RMK AO2 T00790055

Aika: 01:53 (06:53 UTC)


TAF: puuttuu

Säähavainnot ja -ennusteet yli 4000 lentoasemalta (METAR- ja TAF-raportit).

Käytössä olevat sääasemat on merkitty karttaan keltaisilla ja punaisilla pisteillä.

Aseta hiiri pisteen päälle nähdäksesi sääaseman nimen.

Klikkaa sitten nähdäksesi säähavainnot ja -ennusteet.

Kartan vaihtaminen: klikkaa mustalla rastilla varustettuja vihreitä pisteitä, niin voit zoomata sisään; viivalla varustettua vihreää pistettä, niin voit zoomata ulos tai vihreitä nuolia, niin pääset viereisille kartoille.


METAR-TAF: